This is the latest recevied weather packets stored in our database for station/object SM7SJR-13. If no packets are shown the sender has not sent any weather packets the latest 10 day(s).
| Time | Temp. | Humidity | Pressure | Rain* | Wind** | Luminosity | Snow |
|---|---|---|---|---|---|---|---|
| 1777580104 | 6.67° C | 87% | 1024.9 hPa | 0 mm | - | 0 W/m² | - |
| 1777573804 | 11.67° C | 74% | 1024.7 hPa | 0 mm | - | 5 W/m² | - |
| 1777569304 | 15.56° C | 59% | 1024.8 hPa | 0 mm | - | 23 W/m² | - |
| 1777565704 | 15.56° C | 58% | 1024.8 hPa | 0 mm | - | 32 W/m² | - |
| 1777561204 | 17.22° C | 56% | 1024.7 hPa | 0 mm | - | 403 W/m² | - |
| 1777560303 | 17.22° C | 54% | 1024.7 hPa | 0 mm | - | 478 W/m² | - |
| 1777558504 | 18.33° C | 49% | 1024.7 hPa | 0 mm | - | 468 W/m² | - |
| 1777554904 | 18.33° C | 48% | 1024.9 hPa | 0 mm | - | 584 W/m² | - |
| 1777553104 | 18.89° C | 47% | 1025 hPa | 0 mm | - | 378 W/m² | - |
| 1777548604 | 20.56° C | 43% | 1024.9 hPa | 0 mm | - | 531 W/m² | - |
| 1777547704 | 21.67° C | 39% | 1024.9 hPa | 0 mm | - | 714 W/m² | - |
| 1777545004 | 20° C | 38% | 1025 hPa | 0 mm | - | 810 W/m² | - |
| 1777540505 | 19.44° C | 43% | 1025.4 hPa | 0 mm | - | 624 W/m² | - |
| 1777536004 | 16.67° C | 47% | 1026 hPa | 0 mm | - | 438 W/m² | - |
| 1777531503 | 12.78° C | 56% | 1026.1 hPa | 0 mm | - | 334 W/m² | - |
| 1777527004 | 10.56° C | 63% | 1026.1 hPa | 0 mm | - | 95 W/m² | - |
| 1777516204 | 6.11° C | 80% | 1026.5 hPa | 0 mm | - | 0 W/m² | - |
| 1777506303 | 6.67° C | 68% | 1027.1 hPa | 0 mm | - | 0 W/m² | - |
| 1777503603 | 6.67° C | 67% | 1027.1 hPa | 0 mm | - | 0 W/m² | - |
| 1777502704 | 6.67° C | 66% | 1027.2 hPa | 0 mm | - | 0 W/m² | - |
| 1777495504 | 6.67° C | 67% | 1027.6 hPa | 0 mm | - | 0 W/m² | - |
| 1777490104 | 7.78° C | 56% | 1027.5 hPa | 0 mm | - | 0 W/m² | - |
| 1777473903 | 11.11° C | 40% | 1027.9 hPa | 0 mm | - | 287 W/m² | - |
| 1777469404 | 11.11° C | 41% | 1028.5 hPa | 0 mm | - | 594 W/m² | - |
| 1777466703 | 11.11° C | 44% | 1028.5 hPa | 0 mm | - | 520 W/m² | - |
* Rain latest hour (hover to see other rain measurements)
** Current wind speed in m/s (hover to see current wind gust speed)